sensor_id;sensor_type;location;lat;lon;timestamp;P1;durP1;ratioP1;P2;durP2;ratioP2
53062;SDS011;40529;52.172;10.548;2023-03-01T00:01:48;13.07;;;8.30;;
53062;SDS011;40529;52.172;10.548;2023-03-01T00:04:14;13.70;;;7.78;;
53062;SDS011;40529;52.172;10.548;2023-03-01T00:06:41;12.85;;;8.30;;
53062;SDS011;40529;52.172;10.548;2023-03-01T00:09:11;13.77;;;7.70;;
53062;SDS011;40529;52.172;10.548;2023-03-01T00:11:37;12.07;;;7.95;;
53062;SDS011;40529;52.172;10.548;2023-03-01T00:14:03;15.40;;;8.50;;
53062;SDS011;40529;52.172;10.548;2023-03-01T00:16:30;11.60;;;7.57;;
53062;SDS011;40529;52.172;10.548;2023-03-01T00:18:58;13.57;;;8.18;;
53062;SDS011;40529;52.172;10.548;2023-03-01T00:21:24;14.05;;;8.18;;
53062;SDS011;40529;52.172;10.548;2023-03-01T00:23:51;11.73;;;7.28;;
53062;SDS011;40529;52.172;10.548;2023-03-01T00:26:18;14.68;;;8.20;;
53062;SDS011;40529;52.172;10.548;2023-03-01T00:28:45;13.27;;;7.80;;
53062;SDS011;40529;52.172;10.548;2023-03-01T00:31:13;15.45;;;7.72;;
53062;SDS011;40529;52.172;10.548;2023-03-01T00:33:39;10.88;;;6.80;;
53062;SDS011;40529;52.172;10.548;2023-03-01T00:36:05;13.07;;;6.80;;
53062;SDS011;40529;52.172;10.548;2023-03-01T00:38:35;12.45;;;7.40;;
53062;SDS011;40529;52.172;10.548;2023-03-01T00:41:09;11.45;;;6.95;;
53062;SDS011;40529;52.172;10.548;2023-03-01T00:43:35;11.52;;;6.97;;
53062;SDS011;40529;52.172;10.548;2023-03-01T00:46:05;11.23;;;7.35;;
53062;SDS011;40529;52.172;10.548;2023-03-01T00:48:32;11.68;;;7.28;;
53062;SDS011;40529;52.172;10.548;2023-03-01T00:51:08;14.35;;;7.13;;
53062;SDS011;40529;52.172;10.548;2023-03-01T00:53:35;11.27;;;7.25;;
53062;SDS011;40529;52.172;10.548;2023-03-01T00:56:01;13.13;;;7.45;;
53062;SDS011;40529;52.172;10.548;2023-03-01T00:58:27;12.65;;;7.18;;
53062;SDS011;40529;52.172;10.548;2023-03-01T01:00:53;12.57;;;7.43;;
53062;SDS011;40529;52.172;10.548;2023-03-01T01:03:19;14.88;;;7.70;;
53062;SDS011;40529;52.172;10.548;2023-03-01T01:05:45;12.27;;;7.27;;
53062;SDS011;40529;52.172;10.548;2023-03-01T01:08:11;12.32;;;7.32;;
53062;SDS011;40529;52.172;10.548;2023-03-01T01:10:37;12.05;;;7.40;;
53062;SDS011;40529;52.172;10.548;2023-03-01T01:13:03;13.00;;;7.25;;
53062;SDS011;40529;52.172;10.548;2023-03-01T01:15:32;10.32;;;6.88;;
53062;SDS011;40529;52.172;10.548;2023-03-01T01:17:59;9.82;;;6.70;;
53062;SDS011;40529;52.172;10.548;2023-03-01T01:20:25;10.32;;;6.35;;
53062;SDS011;40529;52.172;10.548;2023-03-01T01:22:51;14.10;;;7.35;;
53062;SDS011;40529;52.172;10.548;2023-03-01T01:25:17;12.50;;;7.35;;
53062;SDS011;40529;52.172;10.548;2023-03-01T01:27:43;11.02;;;6.97;;
53062;SDS011;40529;52.172;10.548;2023-03-01T01:30:10;12.57;;;7.55;;
53062;SDS011;40529;52.172;10.548;2023-03-01T01:32:36;13.93;;;7.43;;
53062;SDS011;40529;52.172;10.548;2023-03-01T01:35:02;11.77;;;7.88;;
53062;SDS011;40529;52.172;10.548;2023-03-01T01:37:28;14.40;;;7.32;;
53062;SDS011;40529;52.172;10.548;2023-03-01T01:39:58;10.27;;;6.75;;
53062;SDS011;40529;52.172;10.548;2023-03-01T01:42:24;12.60;;;7.13;;
53062;SDS011;40529;52.172;10.548;2023-03-01T01:45:34;11.55;;;6.60;;
53062;SDS011;40529;52.172;10.548;2023-03-01T01:47:39;13.05;;;7.03;;
53062;SDS011;40529;52.172;10.548;2023-03-01T01:50:08;12.25;;;6.80;;
53062;SDS011;40529;52.172;10.548;2023-03-01T01:52:40;11.73;;;7.38;;
53062;SDS011;40529;52.172;10.548;2023-03-01T01:55:19;11.45;;;7.25;;
53062;SDS011;40529;52.172;10.548;2023-03-01T01:57:51;11.70;;;7.53;;
53062;SDS011;40529;52.172;10.548;2023-03-01T02:02:45;12.88;;;7.25;;
53062;SDS011;40529;52.172;10.548;2023-03-01T02:07:56;11.00;;;7.15;;
53062;SDS011;40529;52.172;10.548;2023-03-01T02:10:23;13.02;;;7.57;;
53062;SDS011;40529;52.172;10.548;2023-03-01T02:12:50;12.63;;;7.25;;
53062;SDS011;40529;52.172;10.548;2023-03-01T02:15:17;9.60;;;6.70;;
53062;SDS011;40529;52.172;10.548;2023-03-01T02:17:43;12.52;;;6.55;;
53062;SDS011;40529;52.172;10.548;2023-03-01T02:20:14;13.27;;;7.00;;
53062;SDS011;40529;52.172;10.548;2023-03-01T02:22:43;9.75;;;6.55;;
53062;SDS011;40529;52.172;10.548;2023-03-01T02:30:23;12.00;;;6.63;;
53062;SDS011;40529;52.172;10.548;2023-03-01T02:32:51;11.82;;;7.07;;
53062;SDS011;40529;52.172;10.548;2023-03-01T02:35:18;11.15;;;6.25;;
53062;SDS011;40529;52.172;10.548;2023-03-01T02:37:45;12.07;;;7.10;;
53062;SDS011;40529;52.172;10.548;2023-03-01T02:40:12;15.48;;;7.28;;
53062;SDS011;40529;52.172;10.548;2023-03-01T02:42:52;10.10;;;6.43;;
53062;SDS011;40529;52.172;10.548;2023-03-01T02:45:19;13.40;;;7.15;;
53062;SDS011;40529;52.172;10.548;2023-03-01T02:47:46;11.20;;;6.68;;
53062;SDS011;40529;52.172;10.548;2023-03-01T02:50:18;11.27;;;6.90;;
53062;SDS011;40529;52.172;10.548;2023-03-01T02:53:32;11.15;;;7.00;;
53062;SDS011;40529;52.172;10.548;2023-03-01T02:55:38;10.65;;;7.45;;
53062;SDS011;40529;52.172;10.548;2023-03-01T02:58:04;11.02;;;6.85;;
53062;SDS011;40529;52.172;10.548;2023-03-01T03:00:31;12.75;;;7.28;;
53062;SDS011;40529;52.172;10.548;2023-03-01T03:02:59;14.50;;;7.80;;
53062;SDS011;40529;52.172;10.548;2023-03-01T03:05:29;13.32;;;7.40;;
53062;SDS011;40529;52.172;10.548;2023-03-01T03:07:55;11.40;;;6.97;;
53062;SDS011;40529;52.172;10.548;2023-03-01T03:10:23;12.68;;;7.07;;
53062;SDS011;40529;52.172;10.548;2023-03-01T03:12:50;11.48;;;7.47;;
53062;SDS011;40529;52.172;10.548;2023-03-01T03:15:16;17.33;;;7.25;;
53062;SDS011;40529;52.172;10.548;2023-03-01T03:17:42;15.52;;;7.72;;
53062;SDS011;40529;52.172;10.548;2023-03-01T03:20:10;12.25;;;7.57;;
53062;SDS011;40529;52.172;10.548;2023-03-01T03:22:40;12.85;;;8.38;;
53062;SDS011;40529;52.172;10.548;2023-03-01T03:25:09;13.70;;;7.75;;
53062;SDS011;40529;52.172;10.548;2023-03-01T03:27:36;12.43;;;7.80;;
53062;SDS011;40529;52.172;10.548;2023-03-01T03:30:03;13.23;;;7.88;;
53062;SDS011;40529;52.172;10.548;2023-03-01T03:32:33;13.40;;;8.32;;
53062;SDS011;40529;52.172;10.548;2023-03-01T03:35:00;13.90;;;8.00;;
53062;SDS011;40529;52.172;10.548;2023-03-01T03:37:26;14.23;;;8.35;;
53062;SDS011;40529;52.172;10.548;2023-03-01T03:40:11;12.02;;;7.60;;
53062;SDS011;40529;52.172;10.548;2023-03-01T03:42:40;15.60;;;8.52;;
53062;SDS011;40529;52.172;10.548;2023-03-01T03:45:06;14.40;;;8.18;;
53062;SDS011;40529;52.172;10.548;2023-03-01T03:47:32;15.60;;;8.20;;
53062;SDS011;40529;52.172;10.548;2023-03-01T03:49:58;17.75;;;9.60;;
53062;SDS011;40529;52.172;10.548;2023-03-01T03:52:24;17.42;;;8.85;;
53062;SDS011;40529;52.172;10.548;2023-03-01T03:54:51;15.70;;;9.23;;
53062;SDS011;40529;52.172;10.548;2023-03-01T03:57:16;16.30;;;9.93;;
53062;SDS011;40529;52.172;10.548;2023-03-01T03:59:43;17.42;;;9.40;;
53062;SDS011;40529;52.172;10.548;2023-03-01T04:02:09;15.02;;;9.25;;
53062;SDS011;40529;52.172;10.548;2023-03-01T04:04:35;14.90;;;9.18;;
53062;SDS011;40529;52.172;10.548;2023-03-01T04:07:01;18.10;;;9.90;;
53062;SDS011;40529;52.172;10.548;2023-03-01T04:09:27;18.13;;;9.68;;
53062;SDS011;40529;52.172;10.548;2023-03-01T04:11:55;17.25;;;9.95;;
53062;SDS011;40529;52.172;10.548;2023-03-01T04:14:21;15.25;;;9.15;;
53062;SDS011;40529;52.172;10.548;2023-03-01T04:16:47;16.73;;;9.98;;
53062;SDS011;40529;52.172;10.548;2023-03-01T04:19:13;14.43;;;9.25;;
53062;SDS011;40529;52.172;10.548;2023-03-01T04:21:40;15.30;;;9.25;;
53062;SDS011;40529;52.172;10.548;2023-03-01T04:24:06;15.32;;;9.65;;
53062;SDS011;40529;52.172;10.548;2023-03-01T04:26:33;16.73;;;10.05;;
53062;SDS011;40529;52.172;10.548;2023-03-01T04:28:59;17.40;;;10.52;;
53062;SDS011;40529;52.172;10.548;2023-03-01T04:31:25;17.20;;;10.02;;
53062;SDS011;40529;52.172;10.548;2023-03-01T04:33:52;18.77;;;10.77;;
53062;SDS011;40529;52.172;10.548;2023-03-01T04:36:19;17.13;;;9.73;;
53062;SDS011;40529;52.172;10.548;2023-03-01T04:38:46;17.35;;;10.13;;
53062;SDS011;40529;52.172;10.548;2023-03-01T04:41:14;20.20;;;10.55;;
53062;SDS011;40529;52.172;10.548;2023-03-01T04:43:40;17.20;;;9.45;;
53062;SDS011;40529;52.172;10.548;2023-03-01T04:46:07;15.82;;;9.63;;
53062;SDS011;40529;52.172;10.548;2023-03-01T04:48:37;14.40;;;9.20;;
53062;SDS011;40529;52.172;10.548;2023-03-01T04:51:04;17.33;;;10.15;;
53062;SDS011;40529;52.172;10.548;2023-03-01T04:53:30;15.82;;;10.23;;
53062;SDS011;40529;52.172;10.548;2023-03-01T04:55:57;17.77;;;10.05;;
53062;SDS011;40529;52.172;10.548;2023-03-01T04:58:24;19.80;;;10.13;;
53062;SDS011;40529;52.172;10.548;2023-03-01T05:00:50;17.77;;;10.50;;
53062;SDS011;40529;52.172;10.548;2023-03-01T05:03:16;15.57;;;9.65;;
53062;SDS011;40529;52.172;10.548;2023-03-01T05:05:43;17.73;;;9.68;;
53062;SDS011;40529;52.172;10.548;2023-03-01T05:08:09;17.95;;;10.23;;
53062;SDS011;40529;52.172;10.548;2023-03-01T05:10:42;15.07;;;9.80;;
53062;SDS011;40529;52.172;10.548;2023-03-01T05:13:08;17.38;;;9.80;;
53062;SDS011;40529;52.172;10.548;2023-03-01T05:15:34;20.38;;;10.70;;
53062;SDS011;40529;52.172;10.548;2023-03-01T05:18:01;17.42;;;10.43;;
53062;SDS011;40529;52.172;10.548;2023-03-01T05:20:29;18.73;;;10.70;;
53062;SDS011;40529;52.172;10.548;2023-03-01T05:22:56;17.80;;;10.40;;
53062;SDS011;40529;52.172;10.548;2023-03-01T05:25:23;20.20;;;10.88;;
53062;SDS011;40529;52.172;10.548;2023-03-01T05:27:49;17.80;;;10.88;;
53062;SDS011;40529;52.172;10.548;2023-03-01T05:30:16;20.20;;;11.32;;
53062;SDS011;40529;52.172;10.548;2023-03-01T05:32:43;18.85;;;10.35;;
53062;SDS011;40529;52.172;10.548;2023-03-01T05:35:11;21.38;;;12.05;;
53062;SDS011;40529;52.172;10.548;2023-03-01T05:37:38;17.55;;;11.40;;
53062;SDS011;40529;52.172;10.548;2023-03-01T05:40:05;19.27;;;11.25;;
53062;SDS011;40529;52.172;10.548;2023-03-01T05:42:40;19.75;;;11.48;;
53062;SDS011;40529;52.172;10.548;2023-03-01T05:45:06;17.33;;;10.68;;
53062;SDS011;40529;52.172;10.548;2023-03-01T05:47:34;18.30;;;10.80;;
53062;SDS011;40529;52.172;10.548;2023-03-01T05:50:00;20.35;;;11.75;;
53062;SDS011;40529;52.172;10.548;2023-03-01T05:52:26;20.65;;;12.48;;
53062;SDS011;40529;52.172;10.548;2023-03-01T05:54:52;21.92;;;11.50;;
53062;SDS011;40529;52.172;10.548;2023-03-01T05:57:18;21.08;;;11.85;;
53062;SDS011;40529;52.172;10.548;2023-03-01T05:59:45;20.38;;;11.82;;
53062;SDS011;40529;52.172;10.548;2023-03-01T06:02:11;19.35;;;11.57;;
53062;SDS011;40529;52.172;10.548;2023-03-01T06:04:37;21.98;;;12.45;;
53062;SDS011;40529;52.172;10.548;2023-03-01T06:07:03;20.48;;;11.93;;
53062;SDS011;40529;52.172;10.548;2023-03-01T06:09:29;21.58;;;12.13;;
53062;SDS011;40529;52.172;10.548;2023-03-01T06:11:55;25.05;;;13.13;;
53062;SDS011;40529;52.172;10.548;2023-03-01T06:14:21;20.88;;;12.02;;
53062;SDS011;40529;52.172;10.548;2023-03-01T06:16:47;21.13;;;11.73;;
53062;SDS011;40529;52.172;10.548;2023-03-01T06:19:13;20.13;;;11.70;;
53062;SDS011;40529;52.172;10.548;2023-03-01T06:21:39;18.40;;;11.18;;
53062;SDS011;40529;52.172;10.548;2023-03-01T06:24:05;21.85;;;12.20;;
53062;SDS011;40529;52.172;10.548;2023-03-01T06:26:32;22.38;;;12.60;;
53062;SDS011;40529;52.172;10.548;2023-03-01T06:28:58;24.38;;;13.70;;
53062;SDS011;40529;52.172;10.548;2023-03-01T06:31:24;23.85;;;13.07;;
53062;SDS011;40529;52.172;10.548;2023-03-01T06:33:50;23.65;;;12.95;;
53062;SDS011;40529;52.172;10.548;2023-03-01T06:36:16;22.48;;;13.23;;
53062;SDS011;40529;52.172;10.548;2023-03-01T06:38:43;24.58;;;13.05;;
53062;SDS011;40529;52.172;10.548;2023-03-01T06:41:09;22.65;;;12.88;;
53062;SDS011;40529;52.172;10.548;2023-03-01T06:43:35;25.65;;;13.63;;
53062;SDS011;40529;52.172;10.548;2023-03-01T06:46:05;24.92;;;13.20;;
53062;SDS011;40529;52.172;10.548;2023-03-01T06:50:58;22.77;;;13.27;;
53062;SDS011;40529;52.172;10.548;2023-03-01T06:53:25;23.58;;;13.90;;
53062;SDS011;40529;52.172;10.548;2023-03-01T06:55:55;26.17;;;14.82;;
53062;SDS011;40529;52.172;10.548;2023-03-01T06:58:21;26.13;;;14.20;;
53062;SDS011;40529;52.172;10.548;2023-03-01T07:00:47;26.13;;;14.73;;
53062;SDS011;40529;52.172;10.548;2023-03-01T07:03:13;27.10;;;15.35;;
53062;SDS011;40529;52.172;10.548;2023-03-01T07:05:39;26.95;;;15.18;;
53062;SDS011;40529;52.172;10.548;2023-03-01T07:08:05;27.15;;;15.13;;
53062;SDS011;40529;52.172;10.548;2023-03-01T07:10:31;29.65;;;14.32;;
53062;SDS011;40529;52.172;10.548;2023-03-01T07:12:58;23.77;;;13.93;;
53062;SDS011;40529;52.172;10.548;2023-03-01T07:15:24;25.65;;;14.52;;
53062;SDS011;40529;52.172;10.548;2023-03-01T07:17:50;30.13;;;14.85;;
53062;SDS011;40529;52.172;10.548;2023-03-01T07:20:20;28.63;;;15.35;;
53062;SDS011;40529;52.172;10.548;2023-03-01T07:22:50;28.20;;;14.95;;
53062;SDS011;40529;52.172;10.548;2023-03-01T07:25:17;28.10;;;15.55;;
53062;SDS011;40529;52.172;10.548;2023-03-01T07:27:43;26.58;;;16.20;;
53062;SDS011;40529;52.172;10.548;2023-03-01T07:30:09;33.00;;;16.42;;
53062;SDS011;40529;52.172;10.548;2023-03-01T07:32:35;33.85;;;17.02;;
53062;SDS011;40529;52.172;10.548;2023-03-01T07:35:01;26.65;;;16.00;;
53062;SDS011;40529;52.172;10.548;2023-03-01T07:37:27;30.40;;;16.42;;
53062;SDS011;40529;52.172;10.548;2023-03-01T07:39:53;30.67;;;16.27;;
53062;SDS011;40529;52.172;10.548;2023-03-01T07:42:19;28.42;;;16.45;;
53062;SDS011;40529;52.172;10.548;2023-03-01T07:44:45;32.97;;;16.77;;
53062;SDS011;40529;52.172;10.548;2023-03-01T07:47:11;31.60;;;16.55;;
53062;SDS011;40529;52.172;10.548;2023-03-01T07:49:37;33.65;;;16.15;;
53062;SDS011;40529;52.172;10.548;2023-03-01T07:52:03;26.73;;;15.85;;
53062;SDS011;40529;52.172;10.548;2023-03-01T07:54:30;26.65;;;15.43;;
53062;SDS011;40529;52.172;10.548;2023-03-01T07:56:56;25.40;;;15.45;;
53062;SDS011;40529;52.172;10.548;2023-03-01T07:59:22;26.25;;;15.35;;
53062;SDS011;40529;52.172;10.548;2023-03-01T08:01:53;26.23;;;15.73;;
53062;SDS011;40529;52.172;10.548;2023-03-01T08:04:19;26.58;;;15.60;;
53062;SDS011;40529;52.172;10.548;2023-03-01T08:06:45;25.42;;;15.07;;
53062;SDS011;40529;52.172;10.548;2023-03-01T08:09:11;24.77;;;15.70;;
53062;SDS011;40529;52.172;10.548;2023-03-01T08:11:37;25.73;;;15.75;;
53062;SDS011;40529;52.172;10.548;2023-03-01T08:14:03;23.30;;;15.75;;
53062;SDS011;40529;52.172;10.548;2023-03-01T08:16:29;25.10;;;15.25;;
53062;SDS011;40529;52.172;10.548;2023-03-01T08:18:57;22.92;;;13.82;;
53062;SDS011;40529;52.172;10.548;2023-03-01T08:21:26;24.90;;;14.17;;
53062;SDS011;40529;52.172;10.548;2023-03-01T08:23:52;22.50;;;13.73;;
53062;SDS011;40529;52.172;10.548;2023-03-01T08:26:19;21.80;;;13.50;;
53062;SDS011;40529;52.172;10.548;2023-03-01T08:28:46;20.15;;;13.45;;
53062;SDS011;40529;52.172;10.548;2023-03-01T08:31:23;24.25;;;13.73;;
53062;SDS011;40529;52.172;10.548;2023-03-01T08:33:50;21.90;;;13.27;;
53062;SDS011;40529;52.172;10.548;2023-03-01T08:36:20;19.02;;;12.48;;
53062;SDS011;40529;52.172;10.548;2023-03-01T08:38:46;22.98;;;13.55;;
53062;SDS011;40529;52.172;10.548;2023-03-01T08:41:12;20.98;;;11.60;;
53062;SDS011;40529;52.172;10.548;2023-03-01T08:43:39;21.92;;;12.65;;
53062;SDS011;40529;52.172;10.548;2023-03-01T08:46:05;23.20;;;12.20;;
53062;SDS011;40529;52.172;10.548;2023-03-01T08:48:31;21.92;;;12.25;;
53062;SDS011;40529;52.172;10.548;2023-03-01T08:51:06;16.95;;;11.50;;
53062;SDS011;40529;52.172;10.548;2023-03-01T08:53:32;21.25;;;11.95;;
53062;SDS011;40529;52.172;10.548;2023-03-01T08:55:59;18.30;;;11.52;;
53062;SDS011;40529;52.172;10.548;2023-03-01T08:58:27;15.45;;;9.48;;
53062;SDS011;40529;52.172;10.548;2023-03-01T09:00:53;18.88;;;10.93;;
53062;SDS011;40529;52.172;10.548;2023-03-01T09:03:21;18.98;;;12.10;;
53062;SDS011;40529;52.172;10.548;2023-03-01T09:05:47;19.65;;;12.15;;
53062;SDS011;40529;52.172;10.548;2023-03-01T09:08:15;14.73;;;10.43;;
53062;SDS011;40529;52.172;10.548;2023-03-01T09:10:41;15.32;;;9.35;;
53062;SDS011;40529;52.172;10.548;2023-03-01T09:13:07;15.98;;;9.35;;
53062;SDS011;40529;52.172;10.548;2023-03-01T09:15:33;13.82;;;8.75;;
53062;SDS011;40529;52.172;10.548;2023-03-01T09:17:59;12.25;;;8.45;;
53062;SDS011;40529;52.172;10.548;2023-03-01T09:20:26;13.55;;;8.00;;
53062;SDS011;40529;52.172;10.548;2023-03-01T09:22:52;14.20;;;8.07;;
53062;SDS011;40529;52.172;10.548;2023-03-01T09:25:18;11.25;;;7.95;;
53062;SDS011;40529;52.172;10.548;2023-03-01T09:27:44;13.98;;;8.20;;
53062;SDS011;40529;52.172;10.548;2023-03-01T09:30:10;13.70;;;8.15;;
53062;SDS011;40529;52.172;10.548;2023-03-01T09:32:36;13.23;;;8.13;;
53062;SDS011;40529;52.172;10.548;2023-03-01T09:35:02;10.95;;;7.50;;
53062;SDS011;40529;52.172;10.548;2023-03-01T09:37:32;12.80;;;7.78;;
53062;SDS011;40529;52.172;10.548;2023-03-01T09:39:58;11.80;;;6.75;;
53062;SDS011;40529;52.172;10.548;2023-03-01T09:42:24;12.73;;;7.13;;
53062;SDS011;40529;52.172;10.548;2023-03-01T09:45:06;12.05;;;7.18;;
53062;SDS011;40529;52.172;10.548;2023-03-01T09:47:37;12.52;;;6.95;;
53062;SDS011;40529;52.172;10.548;2023-03-01T09:50:13;15.07;;;8.05;;
53062;SDS011;40529;52.172;10.548;2023-03-01T09:52:42;14.32;;;7.72;;
53062;SDS011;40529;52.172;10.548;2023-03-01T09:55:12;8.45;;;5.30;;
53062;SDS011;40529;52.172;10.548;2023-03-01T10:02:36;11.98;;;7.22;;
53062;SDS011;40529;52.172;10.548;2023-03-01T10:05:09;13.73;;;7.30;;
53062;SDS011;40529;52.172;10.548;2023-03-01T10:07:49;12.07;;;6.18;;
53062;SDS011;40529;52.172;10.548;2023-03-01T10:10:26;11.82;;;6.45;;
53062;SDS011;40529;52.172;10.548;2023-03-01T10:12:53;11.45;;;6.68;;
53062;SDS011;40529;52.172;10.548;2023-03-01T10:15:34;11.73;;;6.70;;
53062;SDS011;40529;52.172;10.548;2023-03-01T10:18:03;9.35;;;5.95;;
53062;SDS011;40529;52.172;10.548;2023-03-01T10:20:42;12.52;;;6.20;;
53062;SDS011;40529;52.172;10.548;2023-03-01T10:23:09;10.75;;;6.07;;
53062;SDS011;40529;52.172;10.548;2023-03-01T10:28:40;10.57;;;5.33;;
53062;SDS011;40529;52.172;10.548;2023-03-01T10:30:57;10.73;;;6.53;;
53062;SDS011;40529;52.172;10.548;2023-03-01T10:33:24;15.32;;;6.78;;
53062;SDS011;40529;52.172;10.548;2023-03-01T10:35:51;16.80;;;6.70;;
53062;SDS011;40529;52.172;10.548;2023-03-01T10:38:18;9.93;;;5.78;;
53062;SDS011;40529;52.172;10.548;2023-03-01T10:41:03;8.98;;;5.57;;
53062;SDS011;40529;52.172;10.548;2023-03-01T10:46:32;11.93;;;5.97;;
53062;SDS011;40529;52.172;10.548;2023-03-01T10:49:18;9.98;;;5.60;;
53062;SDS011;40529;52.172;10.548;2023-03-01T10:51:45;8.55;;;5.60;;
53062;SDS011;40529;52.172;10.548;2023-03-01T10:54:33;10.30;;;5.78;;
53062;SDS011;40529;52.172;10.548;2023-03-01T10:57:02;9.88;;;5.05;;
53062;SDS011;40529;52.172;10.548;2023-03-01T10:59:29;9.57;;;5.57;;
53062;SDS011;40529;52.172;10.548;2023-03-01T11:02:04;10.57;;;5.25;;
53062;SDS011;40529;52.172;10.548;2023-03-01T11:04:30;9.15;;;6.25;;
53062;SDS011;40529;52.172;10.548;2023-03-01T11:06:59;10.73;;;6.35;;
53062;SDS011;40529;52.172;10.548;2023-03-01T11:11:53;10.35;;;5.55;;
53062;SDS011;40529;52.172;10.548;2023-03-01T11:14:24;8.95;;;5.78;;
53062;SDS011;40529;52.172;10.548;2023-03-01T11:17:00;8.32;;;5.10;;
53062;SDS011;40529;52.172;10.548;2023-03-01T11:19:27;10.55;;;5.65;;
53062;SDS011;40529;52.172;10.548;2023-03-01T11:21:55;12.68;;;6.32;;
53062;SDS011;40529;52.172;10.548;2023-03-01T11:24:25;9.53;;;5.80;;
53062;SDS011;40529;52.172;10.548;2023-03-01T11:26:53;10.48;;;6.15;;
53062;SDS011;40529;52.172;10.548;2023-03-01T11:29:35;8.70;;;5.35;;
53062;SDS011;40529;52.172;10.548;2023-03-01T11:32:04;10.20;;;6.18;;
53062;SDS011;40529;52.172;10.548;2023-03-01T11:34:55;6.20;;;4.20;;
53062;SDS011;40529;52.172;10.548;2023-03-01T11:38:02;11.27;;;5.85;;
53062;SDS011;40529;52.172;10.548;2023-03-01T11:40:21;9.15;;;5.65;;
53062;SDS011;40529;52.172;10.548;2023-03-01T11:45:14;9.80;;;5.68;;
53062;SDS011;40529;52.172;10.548;2023-03-01T11:48:04;10.85;;;5.70;;
53062;SDS011;40529;52.172;10.548;2023-03-01T11:53:01;8.73;;;5.65;;
53062;SDS011;40529;52.172;10.548;2023-03-01T11:58:26;8.98;;;5.65;;
53062;SDS011;40529;52.172;10.548;2023-03-01T12:11:03;8.52;;;4.40;;
53062;SDS011;40529;52.172;10.548;2023-03-01T12:19:34;9.00;;;5.75;;
53062;SDS011;40529;52.172;10.548;2023-03-01T12:25:10;8.90;;;5.85;;
53062;SDS011;40529;52.172;10.548;2023-03-01T12:37:59;8.43;;;5.05;;
53062;SDS011;40529;52.172;10.548;2023-03-01T12:40:38;10.20;;;5.43;;
53062;SDS011;40529;52.172;10.548;2023-03-01T12:48:36;9.48;;;5.53;;
53062;SDS011;40529;52.172;10.548;2023-03-01T12:51:03;8.80;;;5.00;;
53062;SDS011;40529;52.172;10.548;2023-03-01T12:53:31;7.10;;;4.75;;
53062;SDS011;40529;52.172;10.548;2023-03-01T12:56:01;9.15;;;5.03;;
53062;SDS011;40529;52.172;10.548;2023-03-01T13:08:27;7.72;;;4.40;;
53062;SDS011;40529;52.172;10.548;2023-03-01T13:11:11;9.20;;;5.28;;
53062;SDS011;40529;52.172;10.548;2023-03-01T13:13:41;5.80;;;4.28;;
53062;SDS011;40529;52.172;10.548;2023-03-01T13:16:19;6.88;;;4.47;;
53062;SDS011;40529;52.172;10.548;2023-03-01T13:18:46;6.38;;;4.13;;
53062;SDS011;40529;52.172;10.548;2023-03-01T13:21:12;7.30;;;4.50;;
53062;SDS011;40529;52.172;10.548;2023-03-01T13:23:38;6.75;;;4.20;;
53062;SDS011;40529;52.172;10.548;2023-03-01T13:26:17;10.48;;;5.07;;
53062;SDS011;40529;52.172;10.548;2023-03-01T13:31:10;6.70;;;4.18;;
53062;SDS011;40529;52.172;10.548;2023-03-01T13:33:40;7.13;;;4.18;;
53062;SDS011;40529;52.172;10.548;2023-03-01T13:36:07;7.18;;;4.50;;
53062;SDS011;40529;52.172;10.548;2023-03-01T13:38:36;7.72;;;4.18;;
53062;SDS011;40529;52.172;10.548;2023-03-01T13:41:03;6.88;;;3.72;;
53062;SDS011;40529;52.172;10.548;2023-03-01T13:43:34;7.32;;;3.90;;
53062;SDS011;40529;52.172;10.548;2023-03-01T13:46:01;7.32;;;3.40;;
53062;SDS011;40529;52.172;10.548;2023-03-01T13:48:29;6.53;;;3.92;;
53062;SDS011;40529;52.172;10.548;2023-03-01T13:51:03;7.20;;;4.20;;
53062;SDS011;40529;52.172;10.548;2023-03-01T13:53:31;5.82;;;3.33;;
53062;SDS011;40529;52.172;10.548;2023-03-01T13:56:08;6.70;;;3.28;;
53062;SDS011;40529;52.172;10.548;2023-03-01T13:58:46;7.38;;;3.42;;
53062;SDS011;40529;52.172;10.548;2023-03-01T14:01:20;6.43;;;3.47;;
53062;SDS011;40529;52.172;10.548;2023-03-01T14:03:46;6.78;;;3.35;;
53062;SDS011;40529;52.172;10.548;2023-03-01T14:06:13;5.03;;;3.10;;
53062;SDS011;40529;52.172;10.548;2023-03-01T14:08:40;5.00;;;3.22;;
53062;SDS011;40529;52.172;10.548;2023-03-01T14:18:57;7.07;;;4.07;;
53062;SDS011;40529;52.172;10.548;2023-03-01T14:21:20;7.47;;;3.38;;
53062;SDS011;40529;52.172;10.548;2023-03-01T14:23:47;5.65;;;3.15;;
53062;SDS011;40529;52.172;10.548;2023-03-01T14:26:13;6.38;;;3.45;;
53062;SDS011;40529;52.172;10.548;2023-03-01T14:28:45;6.47;;;3.53;;
53062;SDS011;40529;52.172;10.548;2023-03-01T14:34:16;5.65;;;3.80;;
53062;SDS011;40529;52.172;10.548;2023-03-01T14:36:44;5.45;;;3.60;;
53062;SDS011;40529;52.172;10.548;2023-03-01T14:39:20;6.63;;;3.70;;
53062;SDS011;40529;52.172;10.548;2023-03-01T14:41:49;7.30;;;3.90;;
53062;SDS011;40529;52.172;10.548;2023-03-01T14:44:19;6.72;;;3.90;;
53062;SDS011;40529;52.172;10.548;2023-03-01T14:46:51;5.78;;;3.80;;
53062;SDS011;40529;52.172;10.548;2023-03-01T14:49:21;7.22;;;3.92;;
53062;SDS011;40529;52.172;10.548;2023-03-01T14:51:53;6.85;;;4.35;;
53062;SDS011;40529;52.172;10.548;2023-03-01T14:54:21;5.78;;;3.67;;
53062;SDS011;40529;52.172;10.548;2023-03-01T14:56:50;6.38;;;4.53;;
53062;SDS011;40529;52.172;10.548;2023-03-01T14:59:18;5.50;;;3.70;;
53062;SDS011;40529;52.172;10.548;2023-03-01T15:01:45;5.40;;;3.50;;
53062;SDS011;40529;52.172;10.548;2023-03-01T15:04:12;5.72;;;3.53;;
53062;SDS011;40529;52.172;10.548;2023-03-01T15:06:39;6.35;;;3.80;;
53062;SDS011;40529;52.172;10.548;2023-03-01T15:09:05;6.38;;;3.70;;
53062;SDS011;40529;52.172;10.548;2023-03-01T15:11:32;6.72;;;3.90;;
53062;SDS011;40529;52.172;10.548;2023-03-01T15:13:59;5.68;;;3.78;;
53062;SDS011;40529;52.172;10.548;2023-03-01T15:18:55;7.25;;;4.10;;
53062;SDS011;40529;52.172;10.548;2023-03-01T15:21:23;5.63;;;3.53;;
53062;SDS011;40529;52.172;10.548;2023-03-01T15:23:51;5.38;;;3.90;;
53062;SDS011;40529;52.172;10.548;2023-03-01T15:26:25;6.13;;;3.63;;
53062;SDS011;40529;52.172;10.548;2023-03-01T15:28:54;6.97;;;3.45;;
53062;SDS011;40529;52.172;10.548;2023-03-01T15:31:32;6.93;;;3.85;;
53062;SDS011;40529;52.172;10.548;2023-03-01T15:36:46;5.78;;;3.55;;
53062;SDS011;40529;52.172;10.548;2023-03-01T15:41:53;5.45;;;3.47;;
53062;SDS011;40529;52.172;10.548;2023-03-01T15:44:26;5.82;;;3.75;;
53062;SDS011;40529;52.172;10.548;2023-03-01T15:46:52;5.10;;;3.60;;
53062;SDS011;40529;52.172;10.548;2023-03-01T15:51:49;5.45;;;3.38;;
53062;SDS011;40529;52.172;10.548;2023-03-01T15:54:20;5.72;;;3.75;;
53062;SDS011;40529;52.172;10.548;2023-03-01T15:56:47;5.90;;;3.70;;
53062;SDS011;40529;52.172;10.548;2023-03-01T15:59:13;5.50;;;3.50;;
53062;SDS011;40529;52.172;10.548;2023-03-01T16:01:43;8.63;;;4.22;;
53062;SDS011;40529;52.172;10.548;2023-03-01T16:04:10;10.13;;;5.32;;
53062;SDS011;40529;52.172;10.548;2023-03-01T16:06:38;9.73;;;5.68;;
53062;SDS011;40529;52.172;10.548;2023-03-01T16:09:04;7.65;;;4.60;;
53062;SDS011;40529;52.172;10.548;2023-03-01T16:11:31;5.25;;;3.30;;